sensor_id;sensor_type;location;lat;lon;timestamp;pressure;altitude;pressure_sealevel;temperature;humidity
10474;BME280;5284;50.446;7.904;2023-05-02T00:02:40;98589.47;;;9.64;100.00
10474;BME280;5284;50.446;7.904;2023-05-02T00:07:44;98585.13;;;9.63;100.00
10474;BME280;5284;50.446;7.904;2023-05-02T00:12:48;98589.84;;;9.59;100.00
10474;BME280;5284;50.446;7.904;2023-05-02T00:17:51;98586.59;;;9.56;100.00
10474;BME280;5284;50.446;7.904;2023-05-02T00:22:54;98590.44;;;9.52;100.00
10474;BME280;5284;50.446;7.904;2023-05-02T00:27:58;98595.78;;;9.52;100.00
10474;BME280;5284;50.446;7.904;2023-05-02T00:33:02;98590.69;;;9.49;100.00
10474;BME280;5284;50.446;7.904;2023-05-02T00:38:07;98586.47;;;9.46;100.00
10474;BME280;5284;50.446;7.904;2023-05-02T00:43:12;98593.03;;;9.42;100.00
10474;BME280;5284;50.446;7.904;2023-05-02T00:48:15;98591.44;;;9.40;100.00
10474;BME280;5284;50.446;7.904;2023-05-02T00:53:21;98599.66;;;9.37;100.00
10474;BME280;5284;50.446;7.904;2023-05-02T00:58:26;98608.88;;;9.33;100.00
10474;BME280;5284;50.446;7.904;2023-05-02T01:03:35;98608.88;;;9.33;100.00
10474;BME280;5284;50.446;7.904;2023-05-02T01:08:48;98609.94;;;9.30;100.00
10474;BME280;5284;50.446;7.904;2023-05-02T01:13:54;98608.50;;;9.26;100.00
10474;BME280;5284;50.446;7.904;2023-05-02T01:18:58;98620.47;;;9.21;100.00
10474;BME280;5284;50.446;7.904;2023-05-02T01:24:06;98617.53;;;9.13;100.00
10474;BME280;5284;50.446;7.904;2023-05-02T01:29:14;98618.41;;;9.13;100.00
10474;BME280;5284;50.446;7.904;2023-05-02T01:34:20;98611.50;;;9.11;100.00
10474;BME280;5284;50.446;7.904;2023-05-02T01:39:24;98609.81;;;9.10;100.00
10474;BME280;5284;50.446;7.904;2023-05-02T01:44:31;98619.63;;;9.09;100.00
10474;BME280;5284;50.446;7.904;2023-05-02T01:49:36;98615.25;;;9.08;100.00
10474;BME280;5284;50.446;7.904;2023-05-02T01:54:41;98624.69;;;9.12;100.00
10474;BME280;5284;50.446;7.904;2023-05-02T01:59:48;98630.84;;;9.13;100.00
10474;BME280;5284;50.446;7.904;2023-05-02T02:04:52;98626.63;;;9.10;100.00
10474;BME280;5284;50.446;7.904;2023-05-02T02:09:56;98645.13;;;9.12;100.00
10474;BME280;5284;50.446;7.904;2023-05-02T02:15:08;98646.09;;;9.11;100.00
10474;BME280;5284;50.446;7.904;2023-05-02T02:20:15;98662.03;;;9.11;100.00
10474;BME280;5284;50.446;7.904;2023-05-02T02:25:18;98665.81;;;9.08;100.00
10474;BME280;5284;50.446;7.904;2023-05-02T02:30:22;98667.38;;;9.11;100.00
10474;BME280;5284;50.446;7.904;2023-05-02T02:35:30;98674.53;;;9.10;100.00
10474;BME280;5284;50.446;7.904;2023-05-02T02:40:40;98674.63;;;9.09;100.00
10474;BME280;5284;50.446;7.904;2023-05-02T02:45:56;98684.53;;;9.07;100.00
10474;BME280;5284;50.446;7.904;2023-05-02T02:51:08;98689.63;;;9.10;100.00
10474;BME280;5284;50.446;7.904;2023-05-02T02:56:15;98696.53;;;9.12;100.00
10474;BME280;5284;50.446;7.904;2023-05-02T03:01:24;98697.03;;;9.17;100.00
10474;BME280;5284;50.446;7.904;2023-05-02T03:06:28;98693.28;;;9.20;100.00
10474;BME280;5284;50.446;7.904;2023-05-02T03:11:32;98705.38;;;9.24;100.00
10474;BME280;5284;50.446;7.904;2023-05-02T03:16:36;98711.69;;;9.34;100.00
10474;BME280;5284;50.446;7.904;2023-05-02T03:21:44;98716.66;;;9.38;100.00
10474;BME280;5284;50.446;7.904;2023-05-02T03:26:53;98718.22;;;9.41;100.00
10474;BME280;5284;50.446;7.904;2023-05-02T03:32:01;98721.03;;;9.39;100.00
10474;BME280;5284;50.446;7.904;2023-05-02T03:37:04;98730.69;;;9.40;100.00
10474;BME280;5284;50.446;7.904;2023-05-02T03:42:07;98736.25;;;9.48;100.00
10474;BME280;5284;50.446;7.904;2023-05-02T03:47:12;98735.69;;;9.56;100.00
10474;BME280;5284;50.446;7.904;2023-05-02T03:52:16;98743.19;;;9.62;100.00
10474;BME280;5284;50.446;7.904;2023-05-02T03:57:20;98753.34;;;9.68;100.00
10474;BME280;5284;50.446;7.904;2023-05-02T04:02:25;98752.38;;;9.69;100.00
10474;BME280;5284;50.446;7.904;2023-05-02T04:07:28;98760.13;;;9.72;100.00
10474;BME280;5284;50.446;7.904;2023-05-02T04:12:35;98771.03;;;9.80;100.00
10474;BME280;5284;50.446;7.904;2023-05-02T04:18:54;98775.13;;;9.84;100.00
10474;BME280;5284;50.446;7.904;2023-05-02T04:25:09;98788.09;;;9.88;100.00
10474;BME280;5284;50.446;7.904;2023-05-02T04:31:25;98783.50;;;9.90;100.00
10474;BME280;5284;50.446;7.904;2023-05-02T04:37:43;98795.63;;;9.94;100.00
10474;BME280;5284;50.446;7.904;2023-05-02T04:43:59;98803.25;;;9.99;100.00
10474;BME280;5284;50.446;7.904;2023-05-02T04:50:16;98812.00;;;10.01;100.00
10474;BME280;5284;50.446;7.904;2023-05-02T04:56:33;98830.66;;;10.12;100.00
10474;BME280;5284;50.446;7.904;2023-05-02T05:02:48;98839.84;;;10.19;100.00
10474;BME280;5284;50.446;7.904;2023-05-02T05:09:05;98837.72;;;10.24;100.00
10474;BME280;5284;50.446;7.904;2023-05-02T05:15:22;98847.00;;;10.29;100.00
10474;BME280;5284;50.446;7.904;2023-05-02T05:20:31;98848.47;;;10.22;100.00
10474;BME280;5284;50.446;7.904;2023-05-02T05:25:36;98851.47;;;10.18;100.00
10474;BME280;5284;50.446;7.904;2023-05-02T05:30:43;98864.22;;;10.14;100.00
10474;BME280;5284;50.446;7.904;2023-05-02T05:35:50;98866.75;;;10.16;100.00
10474;BME280;5284;50.446;7.904;2023-05-02T05:40:53;98875.47;;;10.18;100.00
10474;BME280;5284;50.446;7.904;2023-05-02T05:46:01;98880.06;;;10.16;100.00
10474;BME280;5284;50.446;7.904;2023-05-02T05:51:07;98885.53;;;10.14;100.00
10474;BME280;5284;50.446;7.904;2023-05-02T05:56:10;98894.13;;;10.07;100.00
10474;BME280;5284;50.446;7.904;2023-05-02T06:01:21;98897.66;;;10.18;100.00
10474;BME280;5284;50.446;7.904;2023-05-02T06:06:25;98897.41;;;10.10;100.00
10474;BME280;5284;50.446;7.904;2023-05-02T06:11:28;98909.91;;;10.21;100.00
10474;BME280;5284;50.446;7.904;2023-05-02T06:16:33;98918.97;;;10.07;100.00
10474;BME280;5284;50.446;7.904;2023-05-02T06:21:36;98926.72;;;10.10;100.00
10474;BME280;5284;50.446;7.904;2023-05-02T06:26:40;98934.09;;;10.18;100.00
10474;BME280;5284;50.446;7.904;2023-05-02T06:31:45;98944.66;;;10.19;100.00
10474;BME280;5284;50.446;7.904;2023-05-02T06:36:47;98961.00;;;10.15;100.00
10474;BME280;5284;50.446;7.904;2023-05-02T06:41:55;98955.81;;;10.24;100.00
10474;BME280;5284;50.446;7.904;2023-05-02T06:47:03;98959.34;;;10.25;100.00
10474;BME280;5284;50.446;7.904;2023-05-02T06:52:06;98967.34;;;10.36;100.00
10474;BME280;5284;50.446;7.904;2023-05-02T06:57:11;98982.63;;;10.45;100.00
10474;BME280;5284;50.446;7.904;2023-05-02T07:02:16;98989.31;;;10.50;100.00
10474;BME280;5284;50.446;7.904;2023-05-02T07:07:20;98997.69;;;10.57;100.00
10474;BME280;5284;50.446;7.904;2023-05-02T07:12:24;98997.56;;;10.58;100.00
10474;BME280;5284;50.446;7.904;2023-05-02T07:17:28;99008.47;;;10.55;100.00
10474;BME280;5284;50.446;7.904;2023-05-02T07:22:32;99006.91;;;10.63;100.00
10474;BME280;5284;50.446;7.904;2023-05-02T07:27:35;99014.31;;;10.82;100.00
10474;BME280;5284;50.446;7.904;2023-05-02T07:32:39;99017.56;;;11.18;100.00
10474;BME280;5284;50.446;7.904;2023-05-02T07:37:43;99012.84;;;11.33;100.00
10474;BME280;5284;50.446;7.904;2023-05-02T07:42:47;99008.22;;;11.35;100.00
10474;BME280;5284;50.446;7.904;2023-05-02T07:47:52;99008.78;;;11.71;100.00
10474;BME280;5284;50.446;7.904;2023-05-02T07:52:55;99013.97;;;11.84;100.00
10474;BME280;5284;50.446;7.904;2023-05-02T07:57:58;99016.78;;;12.14;100.00
10474;BME280;5284;50.446;7.904;2023-05-02T08:03:03;99022.41;;;12.51;100.00
10474;BME280;5284;50.446;7.904;2023-05-02T08:08:06;99032.66;;;12.67;100.00
10474;BME280;5284;50.446;7.904;2023-05-02T08:13:10;99025.91;;;12.93;100.00
10474;BME280;5284;50.446;7.904;2023-05-02T08:18:15;99022.81;;;13.57;100.00
10474;BME280;5284;50.446;7.904;2023-05-02T08:23:19;99026.78;;;13.63;100.00
10474;BME280;5284;50.446;7.904;2023-05-02T08:28:22;99025.88;;;14.20;100.00
10474;BME280;5284;50.446;7.904;2023-05-02T08:33:27;99032.38;;;14.46;100.00
10474;BME280;5284;50.446;7.904;2023-05-02T08:38:31;99022.22;;;15.41;94.88
10474;BME280;5284;50.446;7.904;2023-05-02T08:43:35;99042.59;;;14.98;94.75
10474;BME280;5284;50.446;7.904;2023-05-02T08:48:42;99038.56;;;15.21;95.00
10474;BME280;5284;50.446;7.904;2023-05-02T08:53:47;99045.94;;;15.10;94.53
10474;BME280;5284;50.446;7.904;2023-05-02T08:58:50;99050.81;;;15.42;90.65
10474;BME280;5284;50.446;7.904;2023-05-02T09:03:55;99054.25;;;14.70;95.60
10474;BME280;5284;50.446;7.904;2023-05-02T09:08:59;99065.81;;;14.71;93.96
10474;BME280;5284;50.446;7.904;2023-05-02T09:14:13;99068.38;;;14.63;96.21
10474;BME280;5284;50.446;7.904;2023-05-02T09:19:25;99072.47;;;14.76;97.76
10474;BME280;5284;50.446;7.904;2023-05-02T09:24:28;99075.72;;;14.51;99.74
10474;BME280;5284;50.446;7.904;2023-05-02T09:29:32;99070.50;;;15.24;90.51
10474;BME280;5284;50.446;7.904;2023-05-02T09:34:39;99066.91;;;16.23;88.33
10474;BME280;5284;50.446;7.904;2023-05-02T09:40:04;99064.19;;;15.88;85.92
10474;BME280;5284;50.446;7.904;2023-05-02T09:45:08;99075.53;;;15.55;84.12
10474;BME280;5284;50.446;7.904;2023-05-02T09:50:30;99089.06;;;15.18;84.19
10474;BME280;5284;50.446;7.904;2023-05-02T09:55:35;99092.50;;;14.91;88.47
10474;BME280;5284;50.446;7.904;2023-05-02T10:00:40;99099.75;;;14.72;93.25
10474;BME280;5284;50.446;7.904;2023-05-02T10:05:47;99108.38;;;14.85;94.18
10474;BME280;5284;50.446;7.904;2023-05-02T10:10:53;99103.81;;;15.04;97.59
10474;BME280;5284;50.446;7.904;2023-05-02T10:15:59;99114.56;;;14.38;98.60
10474;BME280;5284;50.446;7.904;2023-05-02T10:21:08;99123.34;;;13.91;100.00
10474;BME280;5284;50.446;7.904;2023-05-02T10:26:14;99119.56;;;14.03;100.00
10474;BME280;5284;50.446;7.904;2023-05-02T10:31:17;99121.38;;;14.32;100.00
10474;BME280;5284;50.446;7.904;2023-05-02T10:36:24;99109.63;;;14.33;100.00
10474;BME280;5284;50.446;7.904;2023-05-02T10:41:30;99115.38;;;15.96;98.85
10474;BME280;5284;50.446;7.904;2023-05-02T10:46:36;99114.03;;;16.37;84.70
10474;BME280;5284;50.446;7.904;2023-05-02T10:51:42;99109.13;;;16.23;83.59
10474;BME280;5284;50.446;7.904;2023-05-02T10:57:04;99104.41;;;16.52;82.00
10474;BME280;5284;50.446;7.904;2023-05-02T11:07:46;99113.97;;;16.19;78.89
10474;BME280;5284;50.446;7.904;2023-05-02T11:12:50;99110.16;;;15.68;80.20
10474;BME280;5284;50.446;7.904;2023-05-02T11:18:00;99111.25;;;16.64;79.89
10474;BME280;5284;50.446;7.904;2023-05-02T11:23:21;99109.69;;;16.96;73.03
10474;BME280;5284;50.446;7.904;2023-05-02T11:28:42;99104.44;;;15.98;74.66
10474;BME280;5284;50.446;7.904;2023-05-02T11:33:54;99107.78;;;16.54;69.56
10474;BME280;5284;50.446;7.904;2023-05-02T11:38:59;99114.69;;;17.08;62.63
10474;BME280;5284;50.446;7.904;2023-05-02T11:44:03;99122.84;;;17.16;62.79
10474;BME280;5284;50.446;7.904;2023-05-02T11:49:09;99130.06;;;17.92;60.32
10474;BME280;5284;50.446;7.904;2023-05-02T11:54:18;99133.59;;;17.34;62.40
10474;BME280;5284;50.446;7.904;2023-05-02T11:59:22;99136.91;;;16.23;65.72
10474;BME280;5284;50.446;7.904;2023-05-02T12:04:25;99137.66;;;18.30;63.52
10474;BME280;5284;50.446;7.904;2023-05-02T12:09:32;99147.72;;;18.61;59.35
10474;BME280;5284;50.446;7.904;2023-05-02T12:14:38;99155.06;;;20.19;58.06
10474;BME280;5284;50.446;7.904;2023-05-02T12:19:41;99166.91;;;19.40;56.11
10474;BME280;5284;50.446;7.904;2023-05-02T12:24:47;99169.75;;;18.98;57.61
10474;BME280;5284;50.446;7.904;2023-05-02T12:29:52;99179.06;;;19.20;57.34
10474;BME280;5284;50.446;7.904;2023-05-02T12:34:56;99178.63;;;18.59;56.40
10474;BME280;5284;50.446;7.904;2023-05-02T12:40:00;99181.75;;;18.39;58.27
10474;BME280;5284;50.446;7.904;2023-05-02T12:45:15;99189.19;;;17.78;59.95
10474;BME280;5284;50.446;7.904;2023-05-02T12:50:18;99193.72;;;17.52;58.65
10474;BME280;5284;50.446;7.904;2023-05-02T12:55:24;99191.59;;;19.21;56.13
10474;BME280;5284;50.446;7.904;2023-05-02T13:00:27;99197.03;;;18.63;58.13
10474;BME280;5284;50.446;7.904;2023-05-02T13:05:33;99201.16;;;18.34;57.26
10474;BME280;5284;50.446;7.904;2023-05-02T13:10:38;99204.88;;;20.10;55.50
10474;BME280;5284;50.446;7.904;2023-05-02T13:15:41;99211.22;;;18.24;56.44
10474;BME280;5284;50.446;7.904;2023-05-02T13:20:46;99217.44;;;17.66;56.83
10474;BME280;5284;50.446;7.904;2023-05-02T13:25:51;99218.63;;;17.46;56.87
10474;BME280;5284;50.446;7.904;2023-05-02T13:30:54;99213.50;;;17.00;56.13
10474;BME280;5284;50.446;7.904;2023-05-02T13:35:57;99217.91;;;16.57;56.73
10474;BME280;5284;50.446;7.904;2023-05-02T13:41:05;99220.66;;;16.47;58.61
10474;BME280;5284;50.446;7.904;2023-05-02T13:46:12;99222.84;;;15.52;62.66
10474;BME280;5284;50.446;7.904;2023-05-02T13:51:16;99226.81;;;15.38;62.82
10474;BME280;5284;50.446;7.904;2023-05-02T13:56:20;99225.63;;;15.79;62.97
10474;BME280;5284;50.446;7.904;2023-05-02T14:01:25;99224.94;;;15.58;63.45
10474;BME280;5284;50.446;7.904;2023-05-02T14:06:29;99224.00;;;15.40;62.13
10474;BME280;5284;50.446;7.904;2023-05-02T14:11:33;99227.00;;;15.83;65.07
10474;BME280;5284;50.446;7.904;2023-05-02T14:16:36;99226.72;;;15.86;63.37
10474;BME280;5284;50.446;7.904;2023-05-02T14:21:40;99227.13;;;15.91;62.64
10474;BME280;5284;50.446;7.904;2023-05-02T14:26:46;99227.97;;;15.91;65.80
10474;BME280;5284;50.446;7.904;2023-05-02T14:31:49;99233.88;;;15.39;64.12
10474;BME280;5284;50.446;7.904;2023-05-02T14:36:52;99243.22;;;15.45;62.86
10474;BME280;5284;50.446;7.904;2023-05-02T14:41:58;99239.66;;;15.63;61.54
10474;BME280;5284;50.446;7.904;2023-05-02T14:47:03;99246.72;;;15.83;60.49
10474;BME280;5284;50.446;7.904;2023-05-02T14:52:07;99251.88;;;16.04;60.05
10474;BME280;5284;50.446;7.904;2023-05-02T14:57:12;99249.25;;;16.75;55.43
10474;BME280;5284;50.446;7.904;2023-05-02T15:02:15;99244.38;;;16.88;54.55
10474;BME280;5284;50.446;7.904;2023-05-02T15:07:20;99248.19;;;17.73;54.37
10474;BME280;5284;50.446;7.904;2023-05-02T15:12:24;99238.75;;;20.91;47.85
10474;BME280;5284;50.446;7.904;2023-05-02T15:17:28;99238.47;;;25.85;40.94
10474;BME280;5284;50.446;7.904;2023-05-02T15:22:31;99249.78;;;22.53;43.71
10474;BME280;5284;50.446;7.904;2023-05-02T15:27:35;99247.13;;;18.99;49.82
10474;BME280;5284;50.446;7.904;2023-05-02T15:32:40;99245.84;;;19.83;48.72
10474;BME280;5284;50.446;7.904;2023-05-02T15:37:44;99250.31;;;18.38;51.35
10474;BME280;5284;50.446;7.904;2023-05-02T15:42:49;99250.94;;;18.32;50.60
10474;BME280;5284;50.446;7.904;2023-05-02T15:47:53;99250.41;;;17.77;52.17
10474;BME280;5284;50.446;7.904;2023-05-02T15:52:56;99245.44;;;17.90;51.30
10474;BME280;5284;50.446;7.904;2023-05-02T15:58:00;99245.88;;;19.67;48.54
10474;BME280;5284;50.446;7.904;2023-05-02T16:03:04;99255.59;;;18.47;50.25
10474;BME280;5284;50.446;7.904;2023-05-02T16:08:07;99264.25;;;21.12;47.51
10474;BME280;5284;50.446;7.904;2023-05-02T16:13:12;99259.22;;;26.70;36.62
10474;BME280;5284;50.446;7.904;2023-05-02T16:18:14;99258.22;;;26.58;37.90
10474;BME280;5284;50.446;7.904;2023-05-02T16:23:18;99255.28;;;25.09;36.83
10474;BME280;5284;50.446;7.904;2023-05-02T16:28:25;99257.91;;;20.59;43.44
10474;BME280;5284;50.446;7.904;2023-05-02T16:33:29;99266.41;;;19.04;45.52
10474;BME280;5284;50.446;7.904;2023-05-02T16:38:32;99259.63;;;23.53;40.73
10474;BME280;5284;50.446;7.904;2023-05-02T16:43:38;99276.00;;;25.37;36.40
10474;BME280;5284;50.446;7.904;2023-05-02T16:48:41;99269.03;;;27.10;35.42
10474;BME280;5284;50.446;7.904;2023-05-02T16:53:45;99270.13;;;29.88;31.90
10474;BME280;5284;50.446;7.904;2023-05-02T16:58:49;99271.66;;;25.09;35.84
10474;BME280;5284;50.446;7.904;2023-05-02T17:03:52;99270.84;;;20.71;41.29
10474;BME280;5284;50.446;7.904;2023-05-02T17:08:55;99277.69;;;18.92;43.68
10474;BME280;5284;50.446;7.904;2023-05-02T17:13:59;99268.44;;;17.34;46.24
10474;BME280;5284;50.446;7.904;2023-05-02T17:19:02;99279.28;;;16.80;47.94
10474;BME280;5284;50.446;7.904;2023-05-02T17:24:06;99278.03;;;16.57;47.94
10474;BME280;5284;50.446;7.904;2023-05-02T17:29:10;99286.22;;;15.64;50.10
10474;BME280;5284;50.446;7.904;2023-05-02T17:34:15;99292.97;;;14.83;51.69
10474;BME280;5284;50.446;7.904;2023-05-02T17:39:19;99285.81;;;14.53;52.71
10474;BME280;5284;50.446;7.904;2023-05-02T17:44:23;99289.00;;;14.38;53.20
10474;BME280;5284;50.446;7.904;2023-05-02T17:49:26;99281.66;;;14.10;54.38
10474;BME280;5284;50.446;7.904;2023-05-02T17:54:29;99289.81;;;13.78;55.50
10474;BME280;5284;50.446;7.904;2023-05-02T17:59:37;99289.47;;;13.72;55.80
10474;BME280;5284;50.446;7.904;2023-05-02T18:04:41;99296.53;;;13.53;56.83
10474;BME280;5284;50.446;7.904;2023-05-02T18:09:45;99299.13;;;13.23;57.94
10474;BME280;5284;50.446;7.904;2023-05-02T18:14:50;99296.88;;;13.07;58.96
10474;BME280;5284;50.446;7.904;2023-05-02T18:19:53;99309.25;;;12.77;62.29
10474;BME280;5284;50.446;7.904;2023-05-02T18:24:57;99313.75;;;12.65;63.61
10474;BME280;5284;50.446;7.904;2023-05-02T18:30:03;99319.75;;;12.47;66.15
10474;BME280;5284;50.446;7.904;2023-05-02T18:35:07;99326.56;;;12.29;66.48
10474;BME280;5284;50.446;7.904;2023-05-02T18:40:11;99335.06;;;12.01;67.86
10474;BME280;5284;50.446;7.904;2023-05-02T18:45:16;99333.31;;;11.89;66.70
10474;BME280;5284;50.446;7.904;2023-05-02T18:50:20;99334.38;;;11.65;68.57
10474;BME280;5284;50.446;7.904;2023-05-02T18:55:24;99341.69;;;11.39;72.11
10474;BME280;5284;50.446;7.904;2023-05-02T19:00:28;99347.78;;;11.18;72.48
10474;BME280;5284;50.446;7.904;2023-05-02T19:05:32;99353.34;;;10.91;77.64
10474;BME280;5284;50.446;7.904;2023-05-02T19:10:35;99351.50;;;10.68;78.97
10474;BME280;5284;50.446;7.904;2023-05-02T19:15:39;99358.13;;;10.51;80.37
10474;BME280;5284;50.446;7.904;2023-05-02T19:20:42;99373.63;;;10.33;81.36
10474;BME280;5284;50.446;7.904;2023-05-02T19:25:46;99372.91;;;10.19;81.01
10474;BME280;5284;50.446;7.904;2023-05-02T19:30:51;99381.13;;;10.03;83.33
10474;BME280;5284;50.446;7.904;2023-05-02T19:35:56;99377.47;;;9.92;87.79
10474;BME280;5284;50.446;7.904;2023-05-02T19:41:02;99384.19;;;9.72;88.34
10474;BME280;5284;50.446;7.904;2023-05-02T19:46:06;99388.81;;;9.56;89.21
10474;BME280;5284;50.446;7.904;2023-05-02T19:51:10;99389.44;;;9.47;90.38
10474;BME280;5284;50.446;7.904;2023-05-02T19:56:14;99400.59;;;9.40;89.89
10474;BME280;5284;50.446;7.904;2023-05-02T20:01:18;99407.16;;;9.34;88.77
10474;BME280;5284;50.446;7.904;2023-05-02T20:06:21;99415.47;;;9.30;86.33
10474;BME280;5284;50.446;7.904;2023-05-02T20:11:25;99424.72;;;9.24;87.15
10474;BME280;5284;50.446;7.904;2023-05-02T20:16:29;99423.59;;;9.14;87.02
10474;BME280;5284;50.446;7.904;2023-05-02T20:21:32;99425.53;;;8.99;88.74
10474;BME280;5284;50.446;7.904;2023-05-02T20:26:35;99429.91;;;9.00;88.38
10474;BME280;5284;50.446;7.904;2023-05-02T20:31:39;99443.53;;;8.95;83.60
10474;BME280;5284;50.446;7.904;2023-05-02T20:36:42;99434.25;;;8.88;84.81
10474;BME280;5284;50.446;7.904;2023-05-02T20:41:45;99440.78;;;8.83;83.98
10474;BME280;5284;50.446;7.904;2023-05-02T20:46:51;99442.22;;;8.74;85.21
10474;BME280;5284;50.446;7.904;2023-05-02T20:51:55;99445.28;;;8.68;83.31
10474;BME280;5284;50.446;7.904;2023-05-02T20:56:57;99443.00;;;8.62;82.99
10474;BME280;5284;50.446;7.904;2023-05-02T21:02:01;99441.69;;;8.55;85.45
10474;BME280;5284;50.446;7.904;2023-05-02T21:07:04;99443.09;;;8.47;90.15
10474;BME280;5284;50.446;7.904;2023-05-02T21:12:07;99448.31;;;8.34;93.09
10474;BME280;5284;50.446;7.904;2023-05-02T21:17:11;99451.59;;;8.10;97.63
10474;BME280;5284;50.446;7.904;2023-05-02T21:22:14;99450.13;;;7.90;99.54
10474;BME280;5284;50.446;7.904;2023-05-02T21:27:17;99458.78;;;7.64;100.00
10474;BME280;5284;50.446;7.904;2023-05-02T21:32:21;99466.34;;;7.56;100.00
10474;BME280;5284;50.446;7.904;2023-05-02T21:37:26;99467.53;;;7.51;100.00
10474;BME280;5284;50.446;7.904;2023-05-02T21:42:29;99472.28;;;7.31;100.00
10474;BME280;5284;50.446;7.904;2023-05-02T21:47:33;99471.00;;;7.22;100.00
10474;BME280;5284;50.446;7.904;2023-05-02T21:52:37;99473.41;;;7.11;100.00
10474;BME280;5284;50.446;7.904;2023-05-02T21:57:39;99469.13;;;6.93;100.00
10474;BME280;5284;50.446;7.904;2023-05-02T22:02:44;99485.19;;;6.75;100.00
10474;BME280;5284;50.446;7.904;2023-05-02T22:07:47;99478.88;;;6.62;100.00
10474;BME280;5284;50.446;7.904;2023-05-02T22:12:50;99476.13;;;6.48;100.00
10474;BME280;5284;50.446;7.904;2023-05-02T22:17:54;99476.13;;;6.48;100.00
10474;BME280;5284;50.446;7.904;2023-05-02T22:22:57;99480.44;;;6.33;100.00
10474;BME280;5284;50.446;7.904;2023-05-02T22:28:00;99483.03;;;6.18;100.00
10474;BME280;5284;50.446;7.904;2023-05-02T22:33:08;99498.94;;;6.01;100.00
10474;BME280;5284;50.446;7.904;2023-05-02T22:38:13;99494.19;;;5.91;100.00
10474;BME280;5284;50.446;7.904;2023-05-02T22:43:17;99493.81;;;5.81;100.00
10474;BME280;5284;50.446;7.904;2023-05-02T22:48:21;99502.47;;;5.66;100.00
10474;BME280;5284;50.446;7.904;2023-05-02T22:53:23;99493.69;;;5.66;100.00
10474;BME280;5284;50.446;7.904;2023-05-02T22:58:26;99499.16;;;5.44;100.00
10474;BME280;5284;50.446;7.904;2023-05-02T23:03:30;99490.91;;;5.33;100.00
10474;BME280;5284;50.446;7.904;2023-05-02T23:08:33;99500.22;;;5.23;100.00
10474;BME280;5284;50.446;7.904;2023-05-02T23:13:36;99504.47;;;5.09;100.00
10474;BME280;5284;50.446;7.904;2023-05-02T23:18:40;99504.53;;;4.89;100.00
10474;BME280;5284;50.446;7.904;2023-05-02T23:23:43;99501.41;;;4.81;100.00
10474;BME280;5284;50.446;7.904;2023-05-02T23:28:47;99500.81;;;4.74;100.00
10474;BME280;5284;50.446;7.904;2023-05-02T23:33:51;99498.28;;;4.73;100.00
10474;BME280;5284;50.446;7.904;2023-05-02T23:38:54;99495.63;;;4.73;100.00
10474;BME280;5284;50.446;7.904;2023-05-02T23:43:57;99499.41;;;4.67;100.00
10474;BME280;5284;50.446;7.904;2023-05-02T23:49:02;99498.94;;;4.40;100.00
10474;BME280;5284;50.446;7.904;2023-05-02T23:54:05;99496.66;;;4.32;100.00
10474;BME280;5284;50.446;7.904;2023-05-02T23:59:08;99506.75;;;4.43;100.00
